Buoy 62726

sailwx.info

Track history (hours):
 
Tides and Currents Weather Stations Pressure Air Temp Water Temp Dewpoint Dewpoint Depression Visibility Wind Speed Wind Dir Waves Ship Positions

Drifting buoy 62726

Last reported at 2014-Sep-18 14:00 UTC. Time now 2014-Sep-18 15:46 UTC.
Position N 40°56' W 016°33'.

Water temperature 20.9 ° C

Date/timePositionNaut miles runAvg speedWind from/ knotsBaromVisibWave heightAir tempDewpointWater temp
2014-Sep-18 14:00N 40°56' W 016°33'1 0.5 20.9
2014-Sep-18 12:00N 40°55' W 016°32'1 0.6 20.9
2014-Sep-18 11:00N 40°56' W 016°32'1 0.5 20.9
2014-Sep-18 09:00N 40°56' W 016°31'0 0.0 20.9
2014-Sep-18 08:00N 40°56' W 016°31'1 0.6 20.9
2014-Sep-18 06:00N 40°57' W 016°32'0 0.0 20.9
2014-Sep-18 04:00N 40°57' W 016°32'0 0.0 20.9
2014-Sep-18 03:00N 40°57' W 016°32'2 1.9 20.9
2014-Sep-18 02:00N 40°55' W 016°32'0 0.0 21.0
2014-Sep-18 01:00N 40°55' W 016°32'0 0.0 21.0
2014-Sep-17 23:00N 40°55' W 016°32'1 1.2 21.0
2014-Sep-17 22:00N 40°54' W 016°32'3 1.4 21.0
2014-Sep-17 20:00N 40°54' W 016°29'0 0.3 21.0
2014-Sep-17 19:00N 40°54' W 016°29'1 1.5 21.0
2014-Sep-17 18:00N 40°55' W 016°27'0 0.0 21.0
2014-Sep-17 17:00N 40°55' W 016°27'1 0.6 21.1
2014-Sep-17 16:00N 40°55' W 016°28'2 0.8 21.1
2014-Sep-17 14:00N 40°56' W 016°27'0 0.0 21.1
2014-Sep-17 12:00N 40°56' W 016°27'1 0.6 21.1
2014-Sep-17 11:00N 40°57' W 016°27'0 0.2 21.1
2014-Sep-17 10:00N 40°57' W 016°27'1 0.2 21.1
2014-Sep-17 07:00N 40°57' W 016°28'1 0.8 21.2
2014-Sep-17 06:00N 40°57' W 016°27'1 0.2 21.2
2014-Sep-17 03:00N 40°57' W 016°27'1 0.3 21.2
2014-Sep-17 01:00N 40°57' W 016°27'2 0.9 21.2
2014-Sep-16 23:00N 40°56' W 016°26'0 0.1 21.2
2014-Sep-16 21:00N 40°56' W 016°26'2 1.9 21.3
2014-Sep-16 20:00N 40°57' W 016°23'0 0.1 21.3
2014-Sep-16 17:00N 40°56' W 016°24'1 0.2 21.3
2014-Sep-16 13:00N 40°57' W 016°23'1 0.7 21.3
2014-Sep-16 12:00N 40°57' W 016°24'0 0.0 21.3
2014-Sep-16 11:00N 40°57' W 016°24'1 1.3 21.3
2014-Sep-16 10:00N 40°56' W 016°23'0 0.0 21.3
2014-Sep-16 07:00N 40°56' W 016°23'1 0.6 21.2
2014-Sep-16 05:00N 40°55' W 016°21'2 0.8 21.2
2014-Sep-16 03:00N 40°57' W 016°20'0 0.0 21.2
2014-Sep-16 02:00N 40°57' W 016°20'0 0.0 21.2
2014-Sep-15 23:00N 40°57' W 016°20'1 0.7 21.3
2014-Sep-15 22:00N 40°56' W 016°20'0 0.0 21.3
2014-Sep-15 20:00N 40°56' W 016°20'1 0.5 21.3
2014-Sep-15 18:00N 40°55' W 016°21'1 1.1 21.3
2014-Sep-15 17:00N 40°54' W 016°20'1 0.4 21.3
2014-Sep-15 15:00N 40°54' W 016°19'1 0.5 21.3
2014-Sep-15 14:00N 40°54' W 016°19'1 0.8 21.3
2014-Sep-15 13:00N 40°54' W 016°18'0 0.0 21.3
2014-Sep-15 12:00N 40°54' W 016°18'1 0.4 21.3
2014-Sep-15 09:00N 40°54' W 016°16'0 0.1 21.3
2014-Sep-15 07:00N 40°54' W 016°16'0 0.0 21.3
2014-Sep-15 06:00N 40°54' W 016°16'0 0.2 21.3
2014-Sep-15 05:00N 40°54' W 016°16'0 0.0 21.3
2014-Sep-15 03:00N 40°54' W 016°16'1 0.2 21.4
2014-Sep-14 21:00N 40°53' W 016°15'1 0.3 21.4
2014-Sep-14 19:00N 40°53' W 016°15'0 0.0 21.4
2014-Sep-14 18:00N 40°53' W 016°15'0 0.3 21.5
2014-Sep-14 17:00N 40°53' W 016°15'0 0.2 21.5
2014-Sep-14 16:00N 40°53' W 016°15'1 0.6 21.5
2014-Sep-14 15:00N 40°53' W 016°14'1 0.3 21.5
2014-Sep-14 13:00N 40°54' W 016°14'0 0.2 21.4
2014-Sep-14 12:00N 40°54' W 016°14'1 0.8 21.4
2014-Sep-14 11:00N 40°54' W 016°15'0 0.0 21.4
2014-Sep-14 09:00N 40°54' W 016°15'0 0.0 21.4
2014-Sep-14 08:00N 40°54' W 016°15'1 0.8 21.4
2014-Sep-14 07:00N 40°53' W 016°15'1 0.5 21.4
2014-Sep-14 06:00N 40°53' W 016°15'1 1.2 21.4
2014-Sep-14 05:00N 40°52' W 016°14'0 0.0 21.4
2014-Sep-14 04:00N 40°52' W 016°14'0 0.0 21.4
2014-Sep-14 03:00N 40°52' W 016°14'2 1.0 21.4
2014-Sep-14 01:00N 40°53' W 016°12'0 0.0 21.4
2014-Sep-13 22:00N 40°53' W 016°12'0 0.4 21.5
2014-Sep-13 21:00N 40°53' W 016°11'0 0.0 21.5
2014-Sep-13 18:00N 40°53' W 016°11'0 0.0 21.5
2014-Sep-13 17:00N 40°53' W 016°11'0 0.1 21.6
2014-Sep-13 15:00N 40°53' W 016°11'1 0.4 21.5
2014-Sep-13 11:00N 40°51' W 016°12'2 0.5 21.4
2014-Sep-13 08:00N 40°51' W 016°10'1 1.2 21.4
2014-Sep-13 07:00N 40°52' W 016°09'0 0.2 21.4
2014-Sep-13 06:00N 40°51' W 016°09'1 0.6 21.4
2014-Sep-13 05:00N 40°52' W 016°08'0 0.2 21.4
2014-Sep-13 04:00N 40°52' W 016°08'0 0.1 21.4
2014-Sep-13 01:00N 40°52' W 016°08'1 0.3 21.5
2014-Sep-12 23:00N 40°52' W 016°09'1 0.7 21.5
2014-Sep-12 22:00N 40°52' W 016°10'1 1.1 21.5
2014-Sep-12 21:00N 40°51' W 016°09'0 0.0 21.5
2014-Sep-12 20:00N 40°51' W 016°09'1 0.4 21.5
2014-Sep-12 18:00N 40°51' W 016°08'1 0.6 21.5
2014-Sep-12 16:00N 40°50' W 016°07'1 0.3 21.5
2014-Sep-12 11:00N 40°51' W 016°05'1 0.8 21.5
2014-Sep-12 10:00N 40°51' W 016°06'0 0.1 21.5
2014-Sep-12 03:00N 40°51' W 016°06'1 0.2 21.5
2014-Sep-11 22:00N 40°52' W 016°06'1 0.6 21.7
2014-Sep-11 20:00N 40°52' W 016°07'2 1.5 21.7
2014-Sep-11 19:00N 40°52' W 016°09'0 0.0 21.7
2014-Sep-11 18:00N 40°52' W 016°09'0 0.0 21.8
2014-Sep-11 17:00N 40°52' W 016°09'1 0.7 21.8
2014-Sep-11 16:00N 40°52' W 016°08'1 1.1 21.9
2014-Sep-11 15:00N 40°51' W 016°09'0 0.0 21.9
2014-Sep-11 14:00N 40°51' W 016°09'1 0.4 21.9
2014-Sep-11 12:00N 40°51' W 016°10'0 0.1 21.9
2014-Sep-11 09:00N 40°51' W 016°10'0 0.4 21.9
2014-Sep-11 08:00N 40°51' W 016°10'1 0.3 21.9
2014-Sep-11 06:00N 40°50' W 016°09'0 0.0 21.9
2014-Sep-11 05:00N 40°50' W 016°09'1 0.1 22.0
2014-Sep-10 22:00N 40°51' W 016°08'1 0.9 22.0
2014-Sep-10 21:00N 40°50' W 016°06'0 0.0 22.0
2014-Sep-10 19:00N 40°50' W 016°06'0 0.0 22.1
2014-Sep-10 17:00N 40°50' W 016°06'0 0.0 22.1
2014-Sep-10 16:00N 40°50' W 016°06'1 0.4 22.1
2014-Sep-10 14:00N 40°50' W 016°06'1 0.1 22.0
2014-Sep-10 10:00N 40°50' W 016°05'0 0.4 22.0
2014-Sep-10 09:00N 40°50' W 016°05'1 0.3 22.0
2014-Sep-10 07:00N 40°50' W 016°05'0 0.5 22.0
2014-Sep-10 06:00N 40°50' W 016°05'1 0.6 22.0
2014-Sep-10 04:00N 40°49' W 016°04'1 0.1 22.0
2014-Sep-09 22:00N 40°49' W 016°04'0 0.0 22.0
2014-Sep-09 21:00N 40°49' W 016°04'1 0.4 22.0
2014-Sep-09 19:00N 40°48' W 016°03'2 1.7 22.0
2014-Sep-09 18:00N 40°48' W 016°01'0 0.0 22.1
2014-Sep-09 16:00N 40°48' W 016°01'0 0.0 22.1
2014-Sep-09 14:00N 40°48' W 016°01'1 0.7 22.1
2014-Sep-09 13:00N 40°48' W 016°01'1 1.1 22.0
2014-Sep-09 12:00N 40°47' W 016°00'0 0.4 22.0
2014-Sep-09 11:00N 40°47' W 016°01'0 0.0 22.0
2014-Sep-09 10:00N 40°47' W 016°01'1 0.2 22.0
2014-Sep-09 06:00N 40°46' W 016°01'1 1.0 22.0
2014-Sep-09 05:00N 40°45' W 016°01'2 0.5 22.0
2014-Sep-09 00:00N 40°44' W 015°59'0 0.0 22.1
2014-Sep-08 23:00N 40°44' W 015°59'1 0.6 22.1
2014-Sep-08 21:00N 40°43' W 015°57'1 0.4 22.1
2014-Sep-08 18:00N 40°43' W 015°56'1 0.3 22.2
2014-Sep-08 16:00N 40°43' W 015°55'1 0.6 22.4
2014-Sep-08 15:00N 40°43' W 015°54'0 0.0 22.4
2014-Sep-08 14:00N 40°43' W 015°54'   22.4
Track history (hours):
 
Tides and Currents Weather Stations Pressure Air Temp Water Temp Dewpoint Dewpoint Depression Visibility Wind Speed Wind Dir Waves Ship Positions

Drifting buoy 62726

Last reported at 2014-Sep-18 14:00 UTC. Time now 2014-Sep-18 15:46 UTC.
Position N 40°56' W 016°33'.

Water temperature 20.9 ° C

Date/timePositionNaut miles runAvg speedWind from/ knotsBaromVisibWave heightAir tempDewpointWater temp
2014-Sep-18 14:00N 40°56' W 016°33'1 0.5 20.9
2014-Sep-18 12:00N 40°55' W 016°32'1 0.6 20.9
2014-Sep-18 11:00N 40°56' W 016°32'1 0.5 20.9
2014-Sep-18 09:00N 40°56' W 016°31'0 0.0 20.9
2014-Sep-18 08:00N 40°56' W 016°31'1 0.6 20.9
2014-Sep-18 06:00N 40°57' W 016°32'0 0.0 20.9
2014-Sep-18 04:00N 40°57' W 016°32'0 0.0 20.9
2014-Sep-18 03:00N 40°57' W 016°32'2 1.9 20.9
2014-Sep-18 02:00N 40°55' W 016°32'0 0.0 21.0
2014-Sep-18 01:00N 40°55' W 016°32'0 0.0 21.0
2014-Sep-17 23:00N 40°55' W 016°32'1 1.2 21.0
2014-Sep-17 22:00N 40°54' W 016°32'3 1.4 21.0
2014-Sep-17 20:00N 40°54' W 016°29'0 0.3 21.0
2014-Sep-17 19:00N 40°54' W 016°29'1 1.5 21.0
2014-Sep-17 18:00N 40°55' W 016°27'0 0.0 21.0
2014-Sep-17 17:00N 40°55' W 016°27'1 0.6 21.1
2014-Sep-17 16:00N 40°55' W 016°28'2 0.8 21.1
2014-Sep-17 14:00N 40°56' W 016°27'0 0.0 21.1
2014-Sep-17 12:00N 40°56' W 016°27'1 0.6 21.1
2014-Sep-17 11:00N 40°57' W 016°27'0 0.2 21.1
2014-Sep-17 10:00N 40°57' W 016°27'1 0.2 21.1
2014-Sep-17 07:00N 40°57' W 016°28'1 0.8 21.2
2014-Sep-17 06:00N 40°57' W 016°27'1 0.2 21.2
2014-Sep-17 03:00N 40°57' W 016°27'1 0.3 21.2
2014-Sep-17 01:00N 40°57' W 016°27'2 0.9 21.2
2014-Sep-16 23:00N 40°56' W 016°26'0 0.1 21.2
2014-Sep-16 21:00N 40°56' W 016°26'2 1.9 21.3
2014-Sep-16 20:00N 40°57' W 016°23'0 0.1 21.3
2014-Sep-16 17:00N 40°56' W 016°24'1 0.2 21.3
2014-Sep-16 13:00N 40°57' W 016°23'1 0.7 21.3
2014-Sep-16 12:00N 40°57' W 016°24'0 0.0 21.3
2014-Sep-16 11:00N 40°57' W 016°24'1 1.3 21.3
2014-Sep-16 10:00N 40°56' W 016°23'0 0.0 21.3
2014-Sep-16 07:00N 40°56' W 016°23'1 0.6 21.2
2014-Sep-16 05:00N 40°55' W 016°21'2 0.8 21.2
2014-Sep-16 03:00N 40°57' W 016°20'0 0.0 21.2
2014-Sep-16 02:00N 40°57' W 016°20'0 0.0 21.2
2014-Sep-15 23:00N 40°57' W 016°20'1 0.7 21.3
2014-Sep-15 22:00N 40°56' W 016°20'0 0.0 21.3
2014-Sep-15 20:00N 40°56' W 016°20'1 0.5 21.3
2014-Sep-15 18:00N 40°55' W 016°21'1 1.1 21.3
2014-Sep-15 17:00N 40°54' W 016°20'1 0.4 21.3
2014-Sep-15 15:00N 40°54' W 016°19'1 0.5 21.3
2014-Sep-15 14:00N 40°54' W 016°19'1 0.8 21.3
2014-Sep-15 13:00N 40°54' W 016°18'0 0.0 21.3
2014-Sep-15 12:00N 40°54' W 016°18'1 0.4 21.3
2014-Sep-15 09:00N 40°54' W 016°16'0 0.1 21.3
2014-Sep-15 07:00N 40°54' W 016°16'0 0.0 21.3
2014-Sep-15 06:00N 40°54' W 016°16'0 0.2 21.3
2014-Sep-15 05:00N 40°54' W 016°16'0 0.0 21.3
2014-Sep-15 03:00N 40°54' W 016°16'1 0.2 21.4
2014-Sep-14 21:00N 40°53' W 016°15'1 0.3 21.4
2014-Sep-14 19:00N 40°53' W 016°15'0 0.0 21.4
2014-Sep-14 18:00N 40°53' W 016°15'0 0.3 21.5
2014-Sep-14 17:00N 40°53' W 016°15'0 0.2 21.5
2014-Sep-14 16:00N 40°53' W 016°15'1 0.6 21.5
2014-Sep-14 15:00N 40°53' W 016°14'1 0.3 21.5
2014-Sep-14 13:00N 40°54' W 016°14'0 0.2 21.4
2014-Sep-14 12:00N 40°54' W 016°14'1 0.8 21.4
2014-Sep-14 11:00N 40°54' W 016°15'0 0.0 21.4
2014-Sep-14 09:00N 40°54' W 016°15'0 0.0 21.4
2014-Sep-14 08:00N 40°54' W 016°15'1 0.8 21.4
2014-Sep-14 07:00N 40°53' W 016°15'1 0.5 21.4
2014-Sep-14 06:00N 40°53' W 016°15'1 1.2 21.4
2014-Sep-14 05:00N 40°52' W 016°14'0 0.0 21.4
2014-Sep-14 04:00N 40°52' W 016°14'0 0.0 21.4
2014-Sep-14 03:00N 40°52' W 016°14'2 1.0 21.4
2014-Sep-14 01:00N 40°53' W 016°12'0 0.0 21.4
2014-Sep-13 22:00N 40°53' W 016°12'0 0.4 21.5
2014-Sep-13 21:00N 40°53' W 016°11'0 0.0 21.5
2014-Sep-13 18:00N 40°53' W 016°11'0 0.0 21.5
2014-Sep-13 17:00N 40°53' W 016°11'0 0.1 21.6
2014-Sep-13 15:00N 40°53' W 016°11'1 0.4 21.5
2014-Sep-13 11:00N 40°51' W 016°12'2 0.5 21.4
2014-Sep-13 08:00N 40°51' W 016°10'1 1.2 21.4
2014-Sep-13 07:00N 40°52' W 016°09'0 0.2 21.4
2014-Sep-13 06:00N 40°51' W 016°09'1 0.6 21.4
2014-Sep-13 05:00N 40°52' W 016°08'0 0.2 21.4
2014-Sep-13 04:00N 40°52' W 016°08'0 0.1 21.4
2014-Sep-13 01:00N 40°52' W 016°08'1 0.3 21.5
2014-Sep-12 23:00N 40°52' W 016°09'1 0.7 21.5
2014-Sep-12 22:00N 40°52' W 016°10'1 1.1 21.5
2014-Sep-12 21:00N 40°51' W 016°09'0 0.0 21.5
2014-Sep-12 20:00N 40°51' W 016°09'1 0.4 21.5
2014-Sep-12 18:00N 40°51' W 016°08'1 0.6 21.5
2014-Sep-12 16:00N 40°50' W 016°07'1 0.3 21.5
2014-Sep-12 11:00N 40°51' W 016°05'1 0.8 21.5
2014-Sep-12 10:00N 40°51' W 016°06'0 0.1 21.5
2014-Sep-12 03:00N 40°51' W 016°06'1 0.2 21.5
2014-Sep-11 22:00N 40°52' W 016°06'1 0.6 21.7
2014-Sep-11 20:00N 40°52' W 016°07'2 1.5 21.7
2014-Sep-11 19:00N 40°52' W 016°09'0 0.0 21.7
2014-Sep-11 18:00N 40°52' W 016°09'0 0.0 21.8
2014-Sep-11 17:00N 40°52' W 016°09'1 0.7 21.8
2014-Sep-11 16:00N 40°52' W 016°08'1 1.1 21.9
2014-Sep-11 15:00N 40°51' W 016°09'0 0.0 21.9
2014-Sep-11 14:00N 40°51' W 016°09'1 0.4 21.9
2014-Sep-11 12:00N 40°51' W 016°10'0 0.1 21.9
2014-Sep-11 09:00N 40°51' W 016°10'0 0.4 21.9
2014-Sep-11 08:00N 40°51' W 016°10'1 0.3 21.9
2014-Sep-11 06:00N 40°50' W 016°09'0 0.0 21.9
2014-Sep-11 05:00N 40°50' W 016°09'1 0.1 22.0
2014-Sep-10 22:00N 40°51' W 016°08'1 0.9 22.0
2014-Sep-10 21:00N 40°50' W 016°06'0 0.0 22.0
2014-Sep-10 19:00N 40°50' W 016°06'0 0.0 22.1
2014-Sep-10 17:00N 40°50' W 016°06'0 0.0 22.1
2014-Sep-10 16:00N 40°50' W 016°06'1 0.4 22.1
2014-Sep-10 14:00N 40°50' W 016°06'1 0.1 22.0
2014-Sep-10 10:00N 40°50' W 016°05'0 0.4 22.0
2014-Sep-10 09:00N 40°50' W 016°05'1 0.3 22.0
2014-Sep-10 07:00N 40°50' W 016°05'0 0.5 22.0
2014-Sep-10 06:00N 40°50' W 016°05'1 0.6 22.0
2014-Sep-10 04:00N 40°49' W 016°04'1 0.1 22.0
2014-Sep-09 22:00N 40°49' W 016°04'0 0.0 22.0
2014-Sep-09 21:00N 40°49' W 016°04'1 0.4 22.0
2014-Sep-09 19:00N 40°48' W 016°03'2 1.7 22.0
2014-Sep-09 18:00N 40°48' W 016°01'0 0.0 22.1
2014-Sep-09 16:00N 40°48' W 016°01'0 0.0 22.1
2014-Sep-09 14:00N 40°48' W 016°01'1 0.7 22.1
2014-Sep-09 13:00N 40°48' W 016°01'1 1.1 22.0
2014-Sep-09 12:00N 40°47' W 016°00'0 0.4 22.0
2014-Sep-09 11:00N 40°47' W 016°01'0 0.0 22.0
2014-Sep-09 10:00N 40°47' W 016°01'1 0.2 22.0
2014-Sep-09 06:00N 40°46' W 016°01'1 1.0 22.0
2014-Sep-09 05:00N 40°45' W 016°01'2 0.5 22.0
2014-Sep-09 00:00N 40°44' W 015°59'0 0.0 22.1
2014-Sep-08 23:00N 40°44' W 015°59'1 0.6 22.1
2014-Sep-08 21:00N 40°43' W 015°57'1 0.4 22.1
2014-Sep-08 18:00N 40°43' W 015°56'1 0.3 22.2
2014-Sep-08 16:00N 40°43' W 015°55'1 0.6 22.4
2014-Sep-08 15:00N 40°43' W 015°54'0 0.0 22.4
2014-Sep-08 14:00N 40°43' W 015°54'   22.4

Dump ship's entire track history